createdAt,value
2022-08-16T00:02:33.363Z,18.63
2022-08-16T00:05:00.779Z,18.72
2022-08-16T00:07:29.500Z,18.76
2022-08-16T00:09:58.693Z,18.83
2022-08-16T00:12:28.889Z,18.69
2022-08-16T00:14:57.352Z,18.73
2022-08-16T00:17:27.046Z,18.44
2022-08-16T00:19:55.713Z,18.65
2022-08-16T00:22:24.967Z,18.59
2022-08-16T00:24:54.467Z,18.50
2022-08-16T00:27:22.841Z,18.65
2022-08-16T00:30:08.841Z,18.77
2022-08-16T00:32:40.164Z,18.67
2022-08-16T00:35:15.080Z,18.50
2022-08-16T00:37:57.868Z,18.42
2022-08-16T00:40:50.885Z,18.30
2022-08-16T00:43:43.441Z,18.34
2022-08-16T00:46:22.470Z,18.26
2022-08-16T00:48:58.556Z,17.97
2022-08-16T00:51:29.404Z,18.16
2022-08-16T00:53:57.280Z,18.07
2022-08-16T00:56:56.644Z,18.27
2022-08-16T00:59:16.183Z,18.30
2022-08-16T01:01:44.748Z,18.18
2022-08-16T01:04:30.104Z,18.25
2022-08-16T01:07:04.962Z,18.35
2022-08-16T01:09:38.489Z,18.44
2022-08-16T01:12:10.984Z,18.31
2022-08-16T01:14:57.296Z,18.36
2022-08-16T01:17:26.564Z,18.35
2022-08-16T01:19:59.043Z,18.31
2022-08-16T01:22:52.538Z,18.25
2022-08-16T01:25:33.931Z,18.13
2022-08-16T01:28:04.957Z,18.19
2022-08-16T01:30:39.989Z,18.21
2022-08-16T01:33:19.771Z,18.24
2022-08-16T01:36:01.069Z,18.12
2022-08-16T01:38:33.191Z,18.15
2022-08-16T01:41:13.279Z,17.94
2022-08-16T01:43:53.474Z,17.72
2022-08-16T01:46:39.495Z,17.96
2022-08-16T01:49:21.761Z,17.89
2022-08-16T01:51:59.587Z,17.49
2022-08-16T01:54:39.981Z,17.58
2022-08-16T01:57:07.391Z,17.58
2022-08-16T01:59:39.904Z,17.56
2022-08-16T02:02:27.540Z,17.47
2022-08-16T02:04:57.558Z,17.44
2022-08-16T02:07:25.911Z,17.40
2022-08-16T02:09:58.577Z,17.50
2022-08-16T02:12:49.483Z,17.54
2022-08-16T02:15:25.525Z,17.69
2022-08-16T02:17:57.271Z,17.78
2022-08-16T02:20:27.778Z,17.71
2022-08-16T02:22:57.412Z,17.36
2022-08-16T02:25:25.236Z,17.45
2022-08-16T02:28:12.036Z,17.49
2022-08-16T02:30:50.006Z,17.23
2022-08-16T02:33:18.295Z,16.70
2022-08-16T02:35:54.470Z,17.38
2022-08-16T02:38:28.904Z,17.41
2022-08-16T02:40:59.063Z,17.47
2022-08-16T02:43:29.083Z,17.30
2022-08-16T02:46:01.631Z,16.94
2022-08-16T02:48:31.109Z,17.16
2022-08-16T02:51:06.236Z,16.82
2022-08-16T02:53:43.250Z,17.41
2022-08-16T02:56:14.869Z,17.23
2022-08-16T02:58:44.025Z,16.79
2022-08-16T03:01:25.310Z,17.14
2022-08-16T03:04:39.406Z,16.91
2022-08-16T03:06:47.858Z,17.04
2022-08-16T03:09:20.844Z,16.72
2022-08-16T03:11:52.252Z,16.67
2022-08-16T03:14:21.393Z,16.82
2022-08-16T03:16:59.446Z,16.71
2022-08-16T03:19:42.225Z,17.02
2022-08-16T03:22:28.184Z,17.14
2022-08-16T03:25:01.147Z,16.97
2022-08-16T03:27:32.412Z,17.12
2022-08-16T03:30:17.356Z,17.09
2022-08-16T03:32:51.348Z,16.94
2022-08-16T03:35:22.057Z,16.95
2022-08-16T03:38:33.481Z,17.13
2022-08-16T03:41:00.593Z,17.06
2022-08-16T03:43:51.632Z,16.68
2022-08-16T03:46:44.505Z,16.94
2022-08-16T03:49:11.402Z,16.84
2022-08-16T03:51:40.516Z,16.74
2022-08-16T03:54:13.001Z,16.70
2022-08-16T03:56:56.938Z,16.84
2022-08-16T03:59:24.254Z,16.65
2022-08-16T04:01:53.657Z,16.97
2022-08-16T04:04:32.236Z,16.84
2022-08-16T04:06:59.598Z,16.78
2022-08-16T04:09:26.400Z,16.84
2022-08-16T04:11:53.136Z,16.82
2022-08-16T04:14:33.146Z,17.14
2022-08-16T04:17:01.830Z,17.22
2022-08-16T04:19:35.338Z,17.32
2022-08-16T04:22:02.960Z,17.40
2022-08-16T04:24:42.684Z,17.52
2022-08-16T04:27:21.278Z,17.58
2022-08-16T04:29:47.951Z,17.53
2022-08-16T04:32:26.572Z,17.41
2022-08-16T04:34:53.895Z,17.40
2022-08-16T04:37:21.872Z,17.31
2022-08-16T04:39:55.615Z,17.44
2022-08-16T04:42:26.519Z,17.32
2022-08-16T04:44:58.309Z,17.38
2022-08-16T04:47:33.296Z,17.38
2022-08-16T04:50:18.120Z,17.46
2022-08-16T04:52:59.238Z,17.48
2022-08-16T04:55:37.631Z,17.41
2022-08-16T04:58:43.711Z,17.24
2022-08-16T05:00:56.416Z,17.58
2022-08-16T05:03:23.993Z,17.71
2022-08-16T05:05:59.131Z,17.70
2022-08-16T05:08:32.816Z,17.42
2022-08-16T05:11:16.143Z,18.03
2022-08-16T05:13:47.146Z,17.85
2022-08-16T05:16:27.047Z,17.91
2022-08-16T05:19:02.239Z,17.94
2022-08-16T05:21:37.987Z,18.06
2022-08-16T05:24:07.824Z,17.95
2022-08-16T05:26:43.283Z,18.04
2022-08-16T05:29:16.971Z,18.22
2022-08-16T05:32:01.338Z,18.41
2022-08-16T05:34:29.021Z,18.59
2022-08-16T05:36:57.346Z,18.94
2022-08-16T05:39:31.252Z,19.02
2022-08-16T05:42:00.498Z,19.02
2022-08-16T05:44:27.192Z,19.30
2022-08-16T05:47:00.183Z,19.37
2022-08-16T05:49:38.364Z,19.43
2022-08-16T05:52:11.585Z,19.27
2022-08-16T05:54:47.313Z,19.57
2022-08-16T05:57:18.605Z,19.42
2022-08-16T05:59:47.506Z,19.35
2022-08-16T06:02:18.980Z,19.10
2022-08-16T06:04:46.243Z,18.83
2022-08-16T06:07:26.714Z,18.62
2022-08-16T06:10:14.725Z,18.54
2022-08-16T06:12:59.176Z,19.10
2022-08-16T06:15:26.044Z,19.28
2022-08-16T06:17:53.851Z,19.64
2022-08-16T06:20:35.107Z,19.43
2022-08-16T06:23:17.285Z,19.60
2022-08-16T06:26:10.718Z,19.88
2022-08-16T06:28:41.844Z,20.15
2022-08-16T06:31:15.115Z,20.51
2022-08-16T06:33:46.076Z,20.45
2022-08-16T06:36:16.948Z,20.76
2022-08-16T06:38:56.763Z,20.71
2022-08-16T06:41:42.289Z,20.71
2022-08-16T06:44:20.730Z,20.76
2022-08-16T06:46:50.353Z,20.73
2022-08-16T06:49:18.136Z,20.75
2022-08-16T06:51:48.418Z,21.08
2022-08-16T06:54:20.983Z,21.40
2022-08-16T06:56:47.723Z,21.60
2022-08-16T06:59:25.633Z,21.90
2022-08-16T07:01:58.121Z,21.77
2022-08-16T07:04:32.932Z,21.81
2022-08-16T07:07:11.338Z,21.90
2022-08-16T07:09:41.651Z,22.30
2022-08-16T07:12:08.845Z,22.57
2022-08-16T07:14:40.522Z,22.72
2022-08-16T07:17:08.472Z,22.79
2022-08-16T07:20:03.693Z,22.72
2022-08-16T07:22:39.831Z,22.62
2022-08-16T07:25:31.231Z,22.65
2022-08-16T07:27:59.523Z,22.47
2022-08-16T07:30:39.251Z,22.54
2022-08-16T07:33:41.277Z,22.84
2022-08-16T07:36:09.897Z,22.96
2022-08-16T07:38:42.325Z,23.46
2022-08-16T07:41:11.041Z,23.95
2022-08-16T07:43:43.539Z,24.21
2022-08-16T07:46:37.748Z,24.76
2022-08-16T07:49:04.712Z,24.77
2022-08-16T07:51:39.714Z,25.00
2022-08-16T07:54:20.718Z,24.98
2022-08-16T07:56:57.945Z,25.28
2022-08-16T07:59:26.053Z,25.62
2022-08-16T08:02:12.254Z,25.54
2022-08-16T08:04:40.697Z,25.57
2022-08-16T08:07:08.964Z,25.73
2022-08-16T08:09:36.702Z,26.23
2022-08-16T08:12:31.394Z,26.46
2022-08-16T08:14:57.391Z,26.81
2022-08-16T08:17:24.567Z,26.36
2022-08-16T08:20:12.507Z,26.68
2022-08-16T08:22:39.403Z,26.87
2022-08-16T08:25:09.830Z,26.79
2022-08-16T08:27:42.376Z,27.29
2022-08-16T08:30:52.249Z,27.64
2022-08-16T08:33:00.794Z,28.29
2022-08-16T08:35:35.577Z,28.48
2022-08-16T08:38:04.246Z,28.33
2022-08-16T08:40:33.573Z,27.40
2022-08-16T08:43:12.071Z,26.67
2022-08-16T08:45:53.096Z,26.55
2022-08-16T08:48:33.863Z,25.76
2022-08-16T08:51:08.742Z,24.74
2022-08-16T08:53:43.121Z,25.96
2022-08-16T08:56:22.940Z,25.59
2022-08-16T08:58:58.929Z,25.68
2022-08-16T09:01:42.988Z,25.66
2022-08-16T09:04:29.932Z,27.48
2022-08-16T09:06:58.544Z,28.01
2022-08-16T09:09:33.141Z,28.45
2022-08-16T09:12:06.318Z,28.27
2022-08-16T09:14:50.826Z,28.22
2022-08-16T09:17:45.391Z,27.47
2022-08-16T09:20:14.060Z,28.26
2022-08-16T09:22:42.560Z,29.03
2022-08-16T09:25:12.348Z,28.63
2022-08-16T09:27:56.598Z,29.06
2022-08-16T09:30:33.286Z,29.64
2022-08-16T09:33:39.926Z,30.03
2022-08-16T09:36:12.132Z,30.49
2022-08-16T09:38:59.992Z,30.75
2022-08-16T09:41:28.169Z,30.71
2022-08-16T09:44:00.102Z,30.74
2022-08-16T09:46:49.200Z,30.54
2022-08-16T09:49:19.719Z,29.41
2022-08-16T09:51:48.251Z,29.24
2022-08-16T09:54:20.964Z,28.57
2022-08-16T09:56:52.137Z,27.98
2022-08-16T09:59:22.790Z,27.81
2022-08-16T10:01:51.101Z,27.76
2022-08-16T10:04:28.224Z,27.69
2022-08-16T10:09:44.834Z,29.40
2022-08-16T10:12:55.813Z,28.49
2022-08-16T10:15:24.567Z,28.76
2022-08-16T10:18:01.175Z,29.09
2022-08-16T10:20:32.547Z,29.43
2022-08-16T10:23:06.915Z,29.77
2022-08-16T10:27:16.667Z,30.10
2022-08-16T10:28:29.301Z,29.52
2022-08-16T10:30:59.710Z,29.39
2022-08-16T10:33:29.467Z,31.11
2022-08-16T10:35:57.667Z,31.82
2022-08-16T10:38:27.898Z,32.42
2022-08-16T10:40:55.043Z,33.07
2022-08-16T10:43:23.349Z,33.06
2022-08-16T10:45:57.232Z,32.42
2022-08-16T10:48:28.846Z,31.91
2022-08-16T10:51:00.133Z,32.43
2022-08-16T10:53:32.784Z,31.01
2022-08-16T10:56:02.651Z,29.84
2022-08-16T10:58:34.487Z,29.66
2022-08-16T11:03:54.118Z,28.35
2022-08-16T11:06:26.823Z,27.95
2022-08-16T11:14:29.150Z,31.29
2022-08-16T11:17:09.318Z,32.24
2022-08-16T11:22:47.990Z,31.46
2022-08-16T11:28:36.148Z,32.65
2022-08-16T11:30:59.458Z,33.53
2022-08-16T11:36:29.697Z,33.56
2022-08-16T11:39:00.697Z,34.21
2022-08-16T11:41:29.434Z,33.91
2022-08-16T11:43:59.325Z,33.30
2022-08-16T11:46:44.814Z,32.03
2022-08-16T11:49:14.345Z,31.71
2022-08-16T11:51:44.302Z,31.40
2022-08-16T11:54:20.582Z,32.10
2022-08-16T11:56:52.386Z,32.16
2022-08-16T11:59:40.018Z,33.04
2022-08-16T12:02:31.564Z,33.64
2022-08-16T12:04:55.880Z,32.76
2022-08-16T12:07:23.527Z,31.40
2022-08-16T12:09:53.204Z,30.88
2022-08-16T12:12:20.951Z,30.66
2022-08-16T12:14:54.635Z,30.07
2022-08-16T12:17:31.500Z,31.32
2022-08-16T12:20:00.475Z,32.45
2022-08-16T12:22:28.061Z,33.15
2022-08-16T12:24:55.375Z,34.00
2022-08-16T12:27:24.583Z,33.98
2022-08-16T12:29:58.444Z,32.92
2022-08-16T12:32:45.886Z,31.37
2022-08-16T12:35:16.022Z,31.28
2022-08-16T12:37:46.114Z,30.56
2022-08-16T12:40:24.975Z,31.32
2022-08-16T12:42:59.703Z,30.69
2022-08-16T12:45:31.159Z,31.70
2022-08-16T12:48:34.534Z,31.24
2022-08-16T12:51:04.442Z,30.84
2022-08-16T12:53:36.018Z,29.83
2022-08-16T12:56:07.536Z,29.58
2022-08-16T12:58:50.381Z,29.28
2022-08-16T13:01:22.500Z,29.01
2022-08-16T13:03:59.105Z,29.14
2022-08-16T13:06:33.409Z,29.45
2022-08-16T13:09:02.470Z,29.67
2022-08-16T13:11:41.535Z,29.76
2022-08-16T13:14:31.035Z,29.42
2022-08-16T13:17:02.589Z,29.51
2022-08-16T13:19:49.787Z,29.12
2022-08-16T13:22:19.681Z,29.14
2022-08-16T13:24:47.291Z,30.35
2022-08-16T13:27:14.006Z,31.40
2022-08-16T13:29:44.134Z,31.99
2022-08-16T13:32:39.579Z,32.60
2022-08-16T13:35:01.135Z,32.83
2022-08-16T13:37:33.473Z,33.30
2022-08-16T13:40:07.731Z,33.40
2022-08-16T13:42:41.413Z,33.35
2022-08-16T13:45:20.484Z,32.77
2022-08-16T13:47:55.816Z,32.62
2022-08-16T13:50:31.177Z,32.15
2022-08-16T13:53:13.494Z,32.01
2022-08-16T13:55:42.043Z,31.83
2022-08-16T13:58:35.070Z,31.96
2022-08-16T14:00:59.670Z,31.87
2022-08-16T14:03:29.090Z,32.44
2022-08-16T14:05:59.899Z,32.75
2022-08-16T14:08:31.888Z,32.27
2022-08-16T14:10:59.111Z,32.34
2022-08-16T14:13:25.829Z,32.31
2022-08-16T14:15:55.265Z,32.34
2022-08-16T14:18:22.501Z,31.69
2022-08-16T14:20:58.472Z,32.28
2022-08-16T14:23:25.355Z,32.20
2022-08-16T14:25:53.965Z,32.58
2022-08-16T14:28:23.500Z,33.11
2022-08-16T14:30:50.580Z,33.06
2022-08-16T14:33:18.469Z,33.12
2022-08-16T14:35:48.579Z,32.90
2022-08-16T14:38:23.862Z,33.02
2022-08-16T14:40:55.304Z,33.17
2022-08-16T14:43:24.795Z,33.24
2022-08-16T14:45:51.591Z,33.10
2022-08-16T14:48:26.313Z,32.96
2022-08-16T14:50:54.601Z,32.99
2022-08-16T14:53:23.667Z,32.77
2022-08-16T14:55:50.766Z,32.45
2022-08-16T14:58:20.216Z,32.25
2022-08-16T15:01:02.005Z,32.31
2022-08-16T15:03:30.151Z,32.37
2022-08-16T15:06:00.433Z,32.48
2022-08-16T15:08:36.109Z,32.40
2022-08-16T15:11:06.123Z,32.38
2022-08-16T15:13:35.156Z,32.09
2022-08-16T15:16:03.607Z,31.48
2022-08-16T15:18:32.305Z,31.02
2022-08-16T15:21:01.711Z,31.44
2022-08-16T15:23:28.499Z,31.54
2022-08-16T15:26:03.012Z,31.35
2022-08-16T15:28:32.450Z,31.03
2022-08-16T15:31:04.682Z,31.15
2022-08-16T15:33:38.902Z,30.70
2022-08-16T15:36:13.832Z,30.64
2022-08-16T15:39:03.066Z,30.18
2022-08-16T15:41:43.671Z,30.72
2022-08-16T15:44:21.338Z,30.22
2022-08-16T15:46:55.439Z,30.64
2022-08-16T15:49:23.018Z,30.34
2022-08-16T15:51:51.943Z,30.29
2022-08-16T15:54:30.396Z,30.73
2022-08-16T15:57:10.962Z,30.94
2022-08-16T15:59:49.523Z,31.07
2022-08-16T16:02:29.290Z,31.02
2022-08-16T16:05:04.300Z,30.63
2022-08-16T16:07:33.315Z,30.77
2022-08-16T16:10:01.701Z,30.69
2022-08-16T16:12:50.799Z,30.58
2022-08-16T16:15:18.574Z,30.58
2022-08-16T16:17:45.523Z,30.75
2022-08-16T16:20:19.731Z,30.80
2022-08-16T16:22:47.467Z,33.40
2022-08-16T16:25:15.875Z,35.85
2022-08-16T16:27:44.103Z,36.91
2022-08-16T16:30:33.198Z,37.55
2022-08-16T16:33:00.944Z,38.03
2022-08-16T16:35:32.787Z,38.78
2022-08-16T16:38:01.006Z,38.92
2022-08-16T16:40:32.211Z,38.16
2022-08-16T16:43:00.535Z,38.22
2022-08-16T16:45:34.556Z,38.39
2022-08-16T16:48:12.474Z,39.01
2022-08-16T16:50:44.559Z,39.01
2022-08-16T16:53:17.097Z,38.79
2022-08-16T16:55:51.660Z,38.70
2022-08-16T16:58:43.542Z,38.93
2022-08-16T17:01:20.934Z,39.27
2022-08-16T17:04:19.229Z,39.52
2022-08-16T17:06:53.570Z,39.49
2022-08-16T17:09:24.683Z,39.43
2022-08-16T17:11:55.358Z,39.46
2022-08-16T17:14:32.105Z,39.60
2022-08-16T17:17:08.459Z,39.15
2022-08-16T17:19:41.077Z,38.68
2022-08-16T17:22:19.750Z,38.14
2022-08-16T17:24:53.226Z,37.70
2022-08-16T17:27:32.770Z,37.61
2022-08-16T17:30:17.069Z,37.43
2022-08-16T17:32:54.490Z,37.29
2022-08-16T17:35:34.144Z,37.09
2022-08-16T17:38:04.699Z,37.03
2022-08-16T17:40:47.801Z,35.49
2022-08-16T17:43:29.074Z,33.50
2022-08-16T17:45:56.602Z,31.84
2022-08-16T17:48:24.660Z,31.50
2022-08-16T17:50:54.581Z,31.12
2022-08-16T17:53:22.463Z,30.58
2022-08-16T17:55:50.535Z,30.53
2022-08-16T17:58:23.541Z,30.13
2022-08-16T18:00:56.599Z,29.75
2022-08-16T18:04:07.079Z,29.58
2022-08-16T18:06:24.157Z,29.20
2022-08-16T18:08:57.863Z,29.18
2022-08-16T18:11:30.070Z,28.62
2022-08-16T18:14:00.068Z,28.75
2022-08-16T18:16:26.958Z,28.72
2022-08-16T18:18:53.742Z,28.57
2022-08-16T18:21:38.993Z,28.35
2022-08-16T18:24:06.151Z,28.34
2022-08-16T18:26:33.064Z,28.09
2022-08-16T18:28:59.763Z,27.92
2022-08-16T18:31:26.698Z,27.59
2022-08-16T18:33:54.653Z,27.31
2022-08-16T18:36:24.128Z,27.03
2022-08-16T18:38:51.828Z,26.84
2022-08-16T18:41:21.333Z,26.75
2022-08-16T18:44:14.207Z,26.71
2022-08-16T18:46:34.799Z,26.63
2022-08-16T18:49:01.518Z,26.40
2022-08-16T18:51:28.204Z,26.27
2022-08-16T18:53:54.883Z,26.19
2022-08-16T18:56:21.605Z,25.68
2022-08-16T18:58:49.014Z,25.75
2022-08-16T19:01:15.891Z,25.20
2022-08-16T19:03:42.955Z,25.54
2022-08-16T19:06:13.952Z,25.68
2022-08-16T19:08:44.042Z,25.64
2022-08-16T19:11:14.871Z,25.54
2022-08-16T19:13:44.150Z,25.36
2022-08-16T19:16:14.854Z,25.35
2022-08-16T19:18:42.437Z,25.36
2022-08-16T19:21:14.638Z,25.21
2022-08-16T19:23:43.612Z,25.20
2022-08-16T19:26:24.476Z,25.13
2022-08-16T19:28:58.775Z,24.72
2022-08-16T19:31:32.917Z,24.95
2022-08-16T19:34:01.224Z,24.69
2022-08-16T19:36:35.974Z,24.82
2022-08-16T19:39:10.419Z,24.74
2022-08-16T19:41:40.357Z,24.38
2022-08-16T19:44:07.762Z,24.59
2022-08-16T19:46:35.451Z,24.51
2022-08-16T19:49:03.021Z,24.48
2022-08-16T19:51:29.902Z,24.41
2022-08-16T19:53:56.549Z,24.35
2022-08-16T19:56:25.635Z,24.11
2022-08-16T19:59:17.373Z,24.11
2022-08-16T20:01:42.238Z,24.04
2022-08-16T20:04:12.329Z,23.98
2022-08-16T20:06:43.142Z,23.89
2022-08-16T20:09:14.743Z,23.51
2022-08-16T20:11:45.984Z,23.19
2022-08-16T20:14:24.043Z,23.12
2022-08-16T20:16:51.981Z,22.92
2022-08-16T20:19:19.121Z,23.09
2022-08-16T20:21:46.154Z,22.89
2022-08-16T20:24:32.459Z,22.70
2022-08-16T20:26:59.670Z,22.68
2022-08-16T20:29:27.871Z,22.47
2022-08-16T20:31:54.929Z,22.79
2022-08-16T20:34:22.698Z,22.64
2022-08-16T20:36:49.418Z,22.65
2022-08-16T20:39:16.312Z,22.64
2022-08-16T20:41:43.175Z,22.47
2022-08-16T20:44:11.197Z,22.49
2022-08-16T20:46:38.985Z,22.50
2022-08-16T20:49:09.254Z,22.43
2022-08-16T20:51:50.849Z,22.36
2022-08-16T20:54:20.942Z,22.09
2022-08-16T20:56:48.128Z,22.31
2022-08-16T20:59:15.134Z,22.25
2022-08-16T21:01:47.039Z,22.11
2022-08-16T21:04:21.558Z,22.16
2022-08-16T21:06:53.815Z,21.96
2022-08-16T21:09:32.615Z,21.91
2022-08-16T21:12:03.307Z,21.69
2022-08-16T21:14:33.883Z,21.51
2022-08-16T21:17:02.407Z,21.51
2022-08-16T21:19:29.321Z,21.45
2022-08-16T21:21:56.424Z,21.49
2022-08-16T21:24:23.430Z,21.55
2022-08-16T21:26:55.534Z,21.44
2022-08-16T21:29:38.428Z,21.46
2022-08-16T21:32:14.658Z,21.34
2022-08-16T21:34:42.410Z,21.54
2022-08-16T21:37:10.085Z,21.43
2022-08-16T21:39:37.322Z,21.00
2022-08-16T21:42:09.133Z,21.06
2022-08-16T21:44:38.739Z,21.08
2022-08-16T21:47:06.549Z,21.07
2022-08-16T21:49:36.613Z,21.08
2022-08-16T21:52:04.718Z,20.91
2022-08-16T21:54:31.469Z,21.02
2022-08-16T21:56:58.153Z,20.93
2022-08-16T21:59:24.853Z,20.75
2022-08-16T22:01:51.601Z,20.91
2022-08-16T22:04:37.652Z,20.96
2022-08-16T22:07:05.975Z,20.64
2022-08-16T22:09:32.874Z,20.62
2022-08-16T22:11:59.649Z,20.66
2022-08-16T22:14:26.438Z,20.64
2022-08-16T22:16:53.256Z,20.63
2022-08-16T22:19:22.709Z,20.85
2022-08-16T22:21:49.513Z,20.76
2022-08-16T22:24:16.277Z,20.55
2022-08-16T22:26:43.803Z,20.01
2022-08-16T22:29:13.238Z,20.37
2022-08-16T22:31:41.506Z,20.26
2022-08-16T22:34:08.980Z,20.25
2022-08-16T22:36:36.318Z,20.03
2022-08-16T22:39:07.223Z,20.29
2022-08-16T22:41:35.977Z,20.17
2022-08-16T22:44:04.289Z,20.12
2022-08-16T22:46:31.416Z,20.12
2022-08-16T22:48:58.594Z,20.23
2022-08-16T22:51:27.630Z,20.31
2022-08-16T22:53:55.669Z,20.34
2022-08-16T22:56:23.931Z,20.24
2022-08-16T22:58:50.752Z,20.18
2022-08-16T23:01:20.417Z,20.02
2022-08-16T23:03:58.425Z,19.61
2022-08-16T23:06:25.218Z,19.62
2022-08-16T23:08:52.093Z,19.77
2022-08-16T23:11:22.677Z,19.71
2022-08-16T23:13:54.349Z,19.55
2022-08-16T23:16:33.532Z,19.50
2022-08-16T23:19:10.401Z,19.88
2022-08-16T23:21:39.525Z,19.69
2022-08-16T23:24:07.514Z,19.32
2022-08-16T23:26:44.268Z,19.34
2022-08-16T23:29:24.937Z,19.21
2022-08-16T23:31:56.207Z,19.39
2022-08-16T23:34:23.871Z,19.45
2022-08-16T23:36:50.479Z,19.37
2022-08-16T23:39:17.197Z,19.15
2022-08-16T23:41:44.445Z,19.24
2022-08-16T23:44:54.951Z,19.33
2022-08-16T23:46:57.798Z,19.41
2022-08-16T23:49:56.030Z,19.44
2022-08-16T23:52:11.598Z,19.61
2022-08-16T23:54:38.467Z,18.96
2022-08-16T23:57:05.237Z,19.19
2022-08-16T23:59:37.441Z,19.16
